createdAt,value
2022-11-02T00:00:27.680Z,45.49
2022-11-02T00:02:54.180Z,45.53
2022-11-02T00:05:24.687Z,45.49
2022-11-02T00:07:52.105Z,45.61
2022-11-02T00:10:19.113Z,45.55
2022-11-02T00:12:45.851Z,45.72
2022-11-02T00:15:12.789Z,45.59
2022-11-02T00:17:42.837Z,45.61
2022-11-02T00:20:12.393Z,45.52
2022-11-02T00:22:39.098Z,45.56
2022-11-02T00:25:07.782Z,45.45
2022-11-02T00:27:35.435Z,45.58
2022-11-02T00:30:02.101Z,45.67
2022-11-02T00:32:28.564Z,45.53
2022-11-02T00:34:55.229Z,45.48
2022-11-02T00:37:21.828Z,45.49
2022-11-02T00:39:48.333Z,45.42
2022-11-02T00:42:14.887Z,45.47
2022-11-02T00:44:41.389Z,45.51
2022-11-02T00:47:07.844Z,45.48
2022-11-02T00:49:34.363Z,45.29
2022-11-02T00:52:01.035Z,45.45
2022-11-02T00:54:28.628Z,45.35
2022-11-02T00:56:55.507Z,45.44
2022-11-02T00:59:21.975Z,45.34
2022-11-02T01:01:49.479Z,45.45
2022-11-02T01:04:20.292Z,45.31
2022-11-02T01:06:47.203Z,45.43
2022-11-02T01:09:14.827Z,45.26
2022-11-02T01:11:42.038Z,45.46
2022-11-02T01:14:09.138Z,45.25
2022-11-02T01:16:35.756Z,45.37
2022-11-02T01:19:02.330Z,45.27
2022-11-02T01:21:28.766Z,45.27
2022-11-02T01:23:56.147Z,45.20
2022-11-02T01:26:22.702Z,45.25
2022-11-02T01:28:49.152Z,45.15
2022-11-02T01:31:15.726Z,45.18
2022-11-02T01:33:45.899Z,45.29
2022-11-02T01:36:14.256Z,45.09
2022-11-02T01:38:40.863Z,45.13
2022-11-02T01:41:07.894Z,45.11
2022-11-02T01:43:36.645Z,45.09
2022-11-02T01:46:16.287Z,45.01
2022-11-02T01:49:01.070Z,45.07
2022-11-02T01:51:29.644Z,45.04
2022-11-02T01:53:59.694Z,45.08
2022-11-02T01:56:31.593Z,44.99
2022-11-02T01:59:04.330Z,44.97
2022-11-02T02:01:31.871Z,45.04
2022-11-02T02:03:59.798Z,44.95
2022-11-02T02:06:26.595Z,45.07
2022-11-02T02:08:55.772Z,45.05
2022-11-02T02:11:27.943Z,44.98
2022-11-02T02:13:58.090Z,44.88
2022-11-02T02:16:55.726Z,44.97
2022-11-02T02:19:28.551Z,45.00
2022-11-02T02:22:13.425Z,44.97
2022-11-02T02:25:11.314Z,44.91
2022-11-02T02:27:55.936Z,44.91
2022-11-02T02:30:23.360Z,44.98
2022-11-02T02:32:56.217Z,44.90
2022-11-02T02:35:39.434Z,44.92
2022-11-02T02:38:14.483Z,44.97
2022-11-02T02:40:49.902Z,44.95
2022-11-02T02:43:41.709Z,44.93
2022-11-02T02:46:33.240Z,44.79
2022-11-02T02:49:01.774Z,44.96
2022-11-02T02:51:31.618Z,44.92
2022-11-02T02:54:02.299Z,45.03
2022-11-02T02:56:36.328Z,44.87
2022-11-02T02:59:06.493Z,44.94
2022-11-02T03:01:34.007Z,44.91
2022-11-02T03:04:00.797Z,44.98
2022-11-02T03:06:29.178Z,44.94
2022-11-02T03:09:08.481Z,44.97
2022-11-02T03:15:00.250Z,44.95
2022-11-02T03:17:31.760Z,44.89
2022-11-02T03:20:15.952Z,45.02
2022-11-02T03:23:20.067Z,45.08
2022-11-02T03:26:00.566Z,45.00
2022-11-02T03:28:45.322Z,44.94
2022-11-02T03:31:36.217Z,45.03
2022-11-02T03:34:36.684Z,44.99
2022-11-02T03:37:28.202Z,45.00
2022-11-02T03:40:16.910Z,45.07
2022-11-02T03:42:45.410Z,45.06
2022-11-02T03:45:24.176Z,44.99
2022-11-02T03:47:56.076Z,45.00
2022-11-02T03:50:24.133Z,44.92
2022-11-02T03:52:57.722Z,45.07
2022-11-02T03:55:35.878Z,45.02
2022-11-02T03:58:02.651Z,45.00
2022-11-02T04:00:33.926Z,44.97
2022-11-02T04:03:04.213Z,45.15
2022-11-02T04:05:32.751Z,45.05
2022-11-02T04:08:17.883Z,45.07
2022-11-02T04:11:03.542Z,45.09
2022-11-02T04:13:48.459Z,45.02
2022-11-02T04:16:15.775Z,45.12
2022-11-02T04:19:01.592Z,45.08
2022-11-02T04:21:28.520Z,45.19
2022-11-02T04:24:13.976Z,45.12
2022-11-02T04:26:40.740Z,45.11
2022-11-02T04:29:07.472Z,45.17
2022-11-02T04:31:33.922Z,45.27
2022-11-02T04:34:00.489Z,45.34
2022-11-02T04:36:29.733Z,45.29
2022-11-02T04:38:56.267Z,45.27
2022-11-02T04:41:42.694Z,45.32
2022-11-02T04:44:11.300Z,45.26
2022-11-02T04:46:39.385Z,45.43
2022-11-02T04:49:06.135Z,45.38
2022-11-02T04:51:32.680Z,45.44
2022-11-02T04:53:59.295Z,45.46
2022-11-02T04:56:28.421Z,45.36
2022-11-02T04:58:56.994Z,45.36
2022-11-02T05:01:25.344Z,45.13
2022-11-02T05:03:53.108Z,45.62
2022-11-02T05:06:21.972Z,45.38
2022-11-02T05:08:48.445Z,45.45
2022-11-02T05:11:15.518Z,45.47
2022-11-02T05:13:42.577Z,45.34
2022-11-02T05:16:12.578Z,45.37
2022-11-02T05:18:39.042Z,45.52
2022-11-02T05:21:05.788Z,45.38
2022-11-02T05:23:32.373Z,45.47
2022-11-02T05:26:00.617Z,45.60
2022-11-02T05:28:28.324Z,45.59
2022-11-02T05:30:55.110Z,45.59
2022-11-02T05:33:26.647Z,45.48
2022-11-02T05:35:57.132Z,45.48
2022-11-02T05:38:25.243Z,45.60
2022-11-02T05:40:56.381Z,45.67
2022-11-02T05:43:22.877Z,45.61
2022-11-02T05:45:57.836Z,45.61
2022-11-02T05:48:25.993Z,45.64
2022-11-02T05:50:56.876Z,45.66
2022-11-02T05:53:24.982Z,45.65
2022-11-02T05:55:51.449Z,45.67
2022-11-02T05:58:18.605Z,45.88
2022-11-02T06:00:45.060Z,45.64
2022-11-02T06:03:11.561Z,45.72
2022-11-02T06:05:38.044Z,45.58
2022-11-02T06:08:04.642Z,45.62
2022-11-02T06:10:31.702Z,45.68
2022-11-02T06:13:03.260Z,45.74
2022-11-02T06:15:31.860Z,45.79
2022-11-02T06:17:58.394Z,45.71
2022-11-02T06:20:24.912Z,45.70
2022-11-02T06:22:51.484Z,45.68
2022-11-02T06:25:18.019Z,45.74
2022-11-02T06:27:51.176Z,45.63
2022-11-02T06:30:18.251Z,45.76
2022-11-02T06:32:49.272Z,45.66
2022-11-02T06:35:17.815Z,45.62
2022-11-02T06:37:47.744Z,45.57
2022-11-02T06:40:15.345Z,45.76
2022-11-02T06:42:45.208Z,45.60
2022-11-02T06:45:23.546Z,45.60
2022-11-02T06:47:50.037Z,45.70
2022-11-02T06:50:16.694Z,45.66
2022-11-02T06:52:44.837Z,45.60
2022-11-02T06:55:12.652Z,45.77
2022-11-02T06:57:39.802Z,45.45
2022-11-02T07:02:36.152Z,45.62
2022-11-02T07:05:02.728Z,45.55
2022-11-02T07:07:29.360Z,45.75
2022-11-02T07:09:55.800Z,45.72
2022-11-02T07:12:23.323Z,45.92
2022-11-02T07:14:49.971Z,45.69
2022-11-02T07:17:16.529Z,45.56
2022-11-02T07:19:43.004Z,45.67
2022-11-02T07:22:10.193Z,45.72
2022-11-02T07:24:36.708Z,45.61
2022-11-02T07:27:03.259Z,45.57
2022-11-02T07:29:29.749Z,45.72
2022-11-02T07:31:56.193Z,45.74
2022-11-02T07:36:49.262Z,45.61
2022-11-02T07:39:15.828Z,45.62
2022-11-02T07:41:42.380Z,45.62
2022-11-02T07:44:08.894Z,45.71
2022-11-02T07:46:35.359Z,45.66
2022-11-02T07:49:01.880Z,45.78
2022-11-02T07:53:54.862Z,45.61
2022-11-02T07:58:47.690Z,45.72
2022-11-02T08:01:14.467Z,45.67
2022-11-02T08:03:41.008Z,45.73
2022-11-02T08:06:07.836Z,45.59
2022-11-02T08:08:34.381Z,45.57
2022-11-02T08:11:09.240Z,45.56
2022-11-02T08:13:37.750Z,45.57
2022-11-02T08:16:04.596Z,45.55
2022-11-02T08:18:31.201Z,45.51
2022-11-02T08:20:58.795Z,45.67
2022-11-02T08:23:26.535Z,45.52
2022-11-02T08:28:23.082Z,45.60
2022-11-02T08:30:49.770Z,45.61
2022-11-02T08:33:17.593Z,45.53
2022-11-02T08:35:45.722Z,45.61
2022-11-02T08:38:13.063Z,45.74
2022-11-02T08:40:40.011Z,45.75
2022-11-02T08:43:09.073Z,45.63
2022-11-02T08:46:12.582Z,45.65
2022-11-02T08:48:23.570Z,45.59
2022-11-02T08:50:50.504Z,45.75
2022-11-02T08:53:17.368Z,45.87
2022-11-02T08:55:44.003Z,45.75
2022-11-02T08:58:13.738Z,45.60
2022-11-02T09:00:40.209Z,45.85
2022-11-02T09:03:11.972Z,45.87
2022-11-02T09:05:46.178Z,45.85
2022-11-02T09:08:18.843Z,45.77
2022-11-02T09:10:49.370Z,45.87
2022-11-02T09:13:18.272Z,45.83
2022-11-02T09:15:44.730Z,45.78
2022-11-02T09:18:11.359Z,45.86
2022-11-02T09:20:38.172Z,45.83
2022-11-02T09:23:04.824Z,45.88
2022-11-02T09:25:31.400Z,45.95
2022-11-02T09:27:58.515Z,45.99
2022-11-02T09:30:26.512Z,45.91
2022-11-02T09:32:56.801Z,45.93
2022-11-02T09:35:24.247Z,46.03
2022-11-02T09:37:51.269Z,45.93
2022-11-02T09:40:35.565Z,45.88
2022-11-02T09:43:32.110Z,45.99
2022-11-02T09:46:08.150Z,45.83
2022-11-02T09:48:40.581Z,46.00
2022-11-02T09:51:10.115Z,45.92
2022-11-02T09:53:40.605Z,45.97
2022-11-02T09:56:07.562Z,46.00
2022-11-02T09:58:37.912Z,45.97
2022-11-02T10:01:23.264Z,45.97
2022-11-02T10:04:03.265Z,45.91
2022-11-02T10:06:31.103Z,46.04
2022-11-02T10:09:09.463Z,45.95
2022-11-02T10:16:58.634Z,46.12
2022-11-02T10:19:30.320Z,45.92
2022-11-02T10:21:58.394Z,45.85
2022-11-02T10:24:34.788Z,45.84
2022-11-02T10:27:04.346Z,45.72
2022-11-02T10:29:59.777Z,45.78
2022-11-02T10:32:26.315Z,45.70
2022-11-02T10:34:59.190Z,45.72
2022-11-02T10:38:13.572Z,45.73
2022-11-02T10:41:01.257Z,45.73
2022-11-02T10:43:57.647Z,45.68
2022-11-02T10:46:49.134Z,45.59
2022-11-02T10:50:01.052Z,45.61
2022-11-02T10:52:38.539Z,45.73
2022-11-02T10:55:10.181Z,45.54
2022-11-02T10:57:39.823Z,45.64
2022-11-02T11:08:49.894Z,45.49
2022-11-02T11:11:25.005Z,45.54
2022-11-02T11:19:53.037Z,45.48
2022-11-02T11:22:29.944Z,45.57
2022-11-02T11:25:27.391Z,45.52
2022-11-02T11:27:56.946Z,45.53
2022-11-02T11:33:19.366Z,45.54
2022-11-02T11:35:49.817Z,45.56
2022-11-02T11:38:17.876Z,45.51
2022-11-02T11:40:47.953Z,45.57
2022-11-02T11:43:18.039Z,45.49
2022-11-02T11:46:05.377Z,45.61
2022-11-02T11:48:40.905Z,45.57
2022-11-02T11:51:26.616Z,45.50
2022-11-02T11:54:15.003Z,45.56
2022-11-02T11:56:41.693Z,45.34
2022-11-02T11:59:33.829Z,45.64
2022-11-02T12:02:02.579Z,45.60
2022-11-02T12:04:32.124Z,45.55
2022-11-02T12:07:28.202Z,45.61
2022-11-02T12:10:11.192Z,45.68
2022-11-02T12:12:56.421Z,45.62
2022-11-02T12:15:41.148Z,45.61
2022-11-02T12:18:26.360Z,45.60
2022-11-02T12:21:27.814Z,45.65
2022-11-02T12:27:43.520Z,45.57
2022-11-02T12:30:15.232Z,45.69
2022-11-02T12:32:55.888Z,45.57
2022-11-02T12:35:39.183Z,45.50
2022-11-02T12:38:23.540Z,45.59
2022-11-02T12:41:07.707Z,45.47
2022-11-02T12:43:43.732Z,45.57
2022-11-02T12:46:43.281Z,45.65
2022-11-02T12:49:19.166Z,45.60
2022-11-02T12:52:06.390Z,45.57
2022-11-02T12:54:44.069Z,45.58
2022-11-02T12:57:17.538Z,45.53
2022-11-02T12:59:45.075Z,45.54
2022-11-02T13:02:18.162Z,45.53
2022-11-02T13:04:57.186Z,45.39
2022-11-02T13:07:33.268Z,45.64
2022-11-02T13:10:07.864Z,45.40
2022-11-02T13:12:37.607Z,45.44
2022-11-02T13:15:09.428Z,45.31
2022-11-02T13:17:44.337Z,45.41
2022-11-02T13:20:19.827Z,45.37
2022-11-02T13:22:52.491Z,45.48
2022-11-02T13:25:34.918Z,45.46
2022-11-02T13:28:16.997Z,45.46
2022-11-02T13:30:44.580Z,45.47
2022-11-02T13:33:20.267Z,45.25
2022-11-02T13:35:47.243Z,45.42
2022-11-02T13:38:36.772Z,45.35
2022-11-02T13:41:32.730Z,45.22
2022-11-02T13:44:28.157Z,45.28
2022-11-02T13:47:36.203Z,45.28
2022-11-02T13:50:04.869Z,45.27
2022-11-02T13:52:41.907Z,45.31
2022-11-02T13:55:14.505Z,45.19
2022-11-02T13:57:44.636Z,45.26
2022-11-02T14:00:23.472Z,45.26
2022-11-02T14:06:01.838Z,45.22
2022-11-02T14:08:38.995Z,45.16
2022-11-02T14:11:14.814Z,45.22
2022-11-02T14:13:53.605Z,45.12
2022-11-02T14:16:51.222Z,45.12
2022-11-02T14:19:19.264Z,45.03
2022-11-02T14:21:49.989Z,45.07
2022-11-02T14:24:34.869Z,44.99
2022-11-02T14:27:03.771Z,45.03
2022-11-02T14:29:53.412Z,45.00
2022-11-02T14:32:34.712Z,44.95
2022-11-02T14:35:25.509Z,44.92
2022-11-02T14:37:54.792Z,44.92
2022-11-02T14:41:14.757Z,44.68
2022-11-02T14:43:41.160Z,44.74
2022-11-02T14:46:14.990Z,44.86
2022-11-02T14:48:48.568Z,44.81
2022-11-02T14:51:23.930Z,44.67
2022-11-02T14:53:57.290Z,44.73
2022-11-02T14:56:25.019Z,44.62
2022-11-02T14:58:57.794Z,44.60
2022-11-02T15:01:24.702Z,44.35
2022-11-02T15:03:51.479Z,44.50
2022-11-02T15:06:26.937Z,44.53
2022-11-02T15:09:06.221Z,44.53
2022-11-02T15:11:48.025Z,44.36
2022-11-02T15:14:52.283Z,44.21
2022-11-02T15:17:18.783Z,44.36
2022-11-02T15:22:56.623Z,44.52
2022-11-02T15:25:32.415Z,44.22
2022-11-02T15:28:14.464Z,44.39
2022-11-02T15:30:45.499Z,44.32
2022-11-02T15:33:36.087Z,44.30
2022-11-02T15:36:04.041Z,44.54
2022-11-02T15:38:36.709Z,44.52
2022-11-02T15:41:16.180Z,44.28
2022-11-02T15:43:42.611Z,44.29
2022-11-02T15:46:24.119Z,44.37
2022-11-02T15:49:06.938Z,44.33
2022-11-02T15:51:52.442Z,44.41
2022-11-02T15:54:52.935Z,44.27
2022-11-02T15:57:43.839Z,44.31
2022-11-02T16:00:30.009Z,44.19
2022-11-02T16:03:03.093Z,44.27
2022-11-02T16:05:34.254Z,44.20
2022-11-02T16:08:16.652Z,44.12
2022-11-02T16:10:43.819Z,44.18
2022-11-02T16:13:10.346Z,43.97
2022-11-02T16:15:38.699Z,44.01
2022-11-02T16:18:05.343Z,44.02
2022-11-02T16:20:39.879Z,44.05
2022-11-02T16:23:12.804Z,43.95
2022-11-02T16:25:47.187Z,44.10
2022-11-02T16:28:36.792Z,44.06
2022-11-02T16:31:18.039Z,43.73
2022-11-02T16:33:58.203Z,43.90
2022-11-02T16:36:28.548Z,43.89
2022-11-02T16:39:13.332Z,43.76
2022-11-02T16:41:41.125Z,43.77
2022-11-02T16:44:10.236Z,43.85
2022-11-02T16:47:00.725Z,43.81
2022-11-02T16:49:28.371Z,43.92
2022-11-02T16:51:57.790Z,43.77
2022-11-02T16:54:33.470Z,43.64
2022-11-02T16:57:10.251Z,43.77
2022-11-02T16:59:47.833Z,43.67
2022-11-02T17:02:15.219Z,43.64
2022-11-02T17:04:43.905Z,43.62
2022-11-02T17:07:17.076Z,43.51
2022-11-02T17:09:52.426Z,43.41
2022-11-02T17:12:21.804Z,43.43
2022-11-02T17:14:50.013Z,43.48
2022-11-02T17:17:25.584Z,43.54
2022-11-02T17:20:05.496Z,43.43
2022-11-02T17:22:36.524Z,43.42
2022-11-02T17:25:20.257Z,43.35
2022-11-02T17:27:47.306Z,43.25
2022-11-02T17:30:35.548Z,43.25
2022-11-02T17:33:26.125Z,43.25
2022-11-02T17:35:53.667Z,43.11
2022-11-02T17:38:24.355Z,43.23
2022-11-02T17:40:52.357Z,43.24
2022-11-02T17:43:20.557Z,43.07
2022-11-02T17:45:54.293Z,42.94
2022-11-02T17:48:20.756Z,42.89
2022-11-02T17:50:47.585Z,42.97
2022-11-02T17:53:14.195Z,42.92
2022-11-02T17:55:41.251Z,42.88
2022-11-02T17:58:08.239Z,42.88
2022-11-02T18:00:36.269Z,42.72
2022-11-02T18:03:03.639Z,42.63
2022-11-02T18:05:39.814Z,42.71
2022-11-02T18:08:07.239Z,42.81
2022-11-02T18:10:38.521Z,42.64
2022-11-02T18:13:05.418Z,42.73
2022-11-02T18:15:33.397Z,42.72
2022-11-02T18:18:00.212Z,42.67
2022-11-02T18:20:28.127Z,42.61
2022-11-02T18:22:55.755Z,42.65
2022-11-02T18:25:22.834Z,42.49
2022-11-02T18:27:49.864Z,42.52
2022-11-02T18:30:17.797Z,42.54
2022-11-02T18:32:47.779Z,42.53
2022-11-02T18:35:19.789Z,42.39
2022-11-02T18:37:47.178Z,42.50
2022-11-02T18:40:16.408Z,42.38
2022-11-02T18:42:44.334Z,42.36
2022-11-02T18:45:13.348Z,42.30
2022-11-02T18:47:40.120Z,42.33
2022-11-02T18:50:08.895Z,42.39
2022-11-02T18:52:35.691Z,42.36
2022-11-02T18:55:05.318Z,42.30
2022-11-02T18:57:32.713Z,42.24
2022-11-02T19:00:00.665Z,42.31
2022-11-02T19:02:27.218Z,42.20
2022-11-02T19:04:53.794Z,42.23
2022-11-02T19:07:38.657Z,42.25
2022-11-02T19:10:05.655Z,42.28
2022-11-02T19:12:32.421Z,42.20
2022-11-02T19:14:58.978Z,42.18
2022-11-02T19:17:26.636Z,42.12
2022-11-02T19:19:53.780Z,42.14
2022-11-02T19:22:22.621Z,42.15
2022-11-02T19:24:49.784Z,42.06
2022-11-02T19:27:19.096Z,41.90
2022-11-02T19:29:45.835Z,42.01
2022-11-02T19:32:12.650Z,42.04
2022-11-02T19:34:39.610Z,41.99
2022-11-02T19:37:07.511Z,42.14
2022-11-02T19:39:34.318Z,42.03
2022-11-02T19:42:03.219Z,41.99
2022-11-02T19:44:30.867Z,41.99
2022-11-02T19:46:57.611Z,41.83
2022-11-02T19:49:24.094Z,41.98
2022-11-02T19:51:50.751Z,41.94
2022-11-02T19:54:17.359Z,41.94
2022-11-02T19:56:43.932Z,41.86
2022-11-02T19:59:10.551Z,41.83
2022-11-02T20:01:39.947Z,41.91
2022-11-02T20:04:07.132Z,41.94
2022-11-02T20:06:37.060Z,41.84
2022-11-02T20:09:04.918Z,41.85
2022-11-02T20:11:32.045Z,41.87
2022-11-02T20:14:00.968Z,41.94
2022-11-02T20:16:27.793Z,41.97
2022-11-02T20:18:55.703Z,41.94
2022-11-02T20:21:33.292Z,41.89
2022-11-02T20:24:02.130Z,41.78
2022-11-02T20:26:34.276Z,41.83
2022-11-02T20:29:02.096Z,41.81
2022-11-02T20:31:31.407Z,41.80
2022-11-02T20:34:01.458Z,41.84
2022-11-02T20:36:28.756Z,41.92
2022-11-02T20:38:56.288Z,41.89
2022-11-02T20:41:24.233Z,41.97
2022-11-02T20:43:52.645Z,41.75
2022-11-02T20:46:42.498Z,41.86
2022-11-02T20:51:56.440Z,41.80
2022-11-02T20:54:23.023Z,41.86
2022-11-02T20:56:50.320Z,41.86
2022-11-02T20:59:17.684Z,41.92
2022-11-02T21:01:44.629Z,41.79
2022-11-02T21:04:18.269Z,41.87
2022-11-02T21:06:46.145Z,41.68
2022-11-02T21:09:12.743Z,41.71
2022-11-02T21:11:58.558Z,41.83
2022-11-02T21:14:25.367Z,41.79
2022-11-02T21:16:51.853Z,41.68
2022-11-02T21:19:18.488Z,41.69
2022-11-02T21:21:45.115Z,41.78
2022-11-02T21:24:11.682Z,41.75
2022-11-02T21:26:38.232Z,41.79
2022-11-02T21:29:04.721Z,41.71
2022-11-02T21:31:31.194Z,41.70
2022-11-02T21:33:57.700Z,41.90
2022-11-02T21:36:24.139Z,41.77
2022-11-02T21:38:50.633Z,41.79
2022-11-02T21:41:20.617Z,41.71
2022-11-02T21:43:47.863Z,41.68
2022-11-02T21:46:14.378Z,41.72
2022-11-02T21:48:40.966Z,41.75
2022-11-02T21:51:12.952Z,41.85
2022-11-02T21:53:44.179Z,41.77
2022-11-02T21:56:13.763Z,41.62
2022-11-02T21:58:44.767Z,41.82
2022-11-02T22:01:34.425Z,41.86
2022-11-02T22:04:01.462Z,41.94
2022-11-02T22:06:31.201Z,41.69
2022-11-02T22:08:59.164Z,41.78
2022-11-02T22:11:28.743Z,41.75
2022-11-02T22:13:57.469Z,41.68
2022-11-02T22:16:35.412Z,41.68
2022-11-02T22:19:06.951Z,41.74
2022-11-02T22:21:35.854Z,41.68
2022-11-02T22:24:03.260Z,41.75
2022-11-02T22:26:30.944Z,41.80
2022-11-02T22:28:58.255Z,41.82
2022-11-02T22:31:35.869Z,41.73
2022-11-02T22:34:04.625Z,41.95
2022-11-02T22:36:33.421Z,41.83
2022-11-02T22:39:00.931Z,41.81
2022-11-02T22:41:31.396Z,41.80
2022-11-02T22:44:01.870Z,41.79
2022-11-02T22:46:30.623Z,41.71
2022-11-02T22:48:58.981Z,41.83
2022-11-02T22:51:27.372Z,41.74
2022-11-02T22:53:54.586Z,41.71
2022-11-02T22:56:23.240Z,41.77
2022-11-02T22:58:50.460Z,41.85
2022-11-02T23:01:19.865Z,41.88
2022-11-02T23:03:46.954Z,41.74
2022-11-02T23:06:14.240Z,41.77
2022-11-02T23:08:42.968Z,41.87
2022-11-02T23:11:22.762Z,41.78
2022-11-02T23:13:59.676Z,42.01
2022-11-02T23:16:29.421Z,41.86
2022-11-02T23:19:18.995Z,41.74
2022-11-02T23:22:21.578Z,41.85
2022-11-02T23:25:12.473Z,41.88
2022-11-02T23:28:01.794Z,41.75
2022-11-02T23:30:49.920Z,41.84
2022-11-02T23:33:16.988Z,41.87
2022-11-02T23:36:02.437Z,41.96
2022-11-02T23:38:49.352Z,41.81
2022-11-02T23:41:17.108Z,41.82
2022-11-02T23:43:43.577Z,41.84
2022-11-02T23:46:10.053Z,41.88
2022-11-02T23:48:36.499Z,41.89
2022-11-02T23:51:21.938Z,41.84
